WetterOnline ( https://www.wetteronline.at )

Wetter aktuell Brocken

Aktuelles Wetter: Brocken (1141m)

6-stündlich | Neueste Meldungen
Ortszeit Temperatur Wetter
So, 27.11. 7:00 0.4° C wolkig
So, 27.11. 1:00 1.5° C leicht bewölkt
Sa, 26.11. 19:00 -0.1° C bedeckt
Sa, 26.11. 13:00 1.0° C Nebel
Sa, 26.11. 7:00 0.1° C Nebel
Sa, 26.11. 1:00 1.7° C Nebel
Fr, 25.11. 19:00 1.5° C Nebel
Fr, 25.11. 13:00 1.0° C Nebel
Ortszeit Temperatur Wetter
So, 27.11. 8:30 1.6° C wolkig
So, 27.11. 8:20 1.6° C wolkig
So, 27.11. 8:10 1.5° C bedeckt
So, 27.11. 8:00 1.2° C wolkig
So, 27.11. 7:50 1.2° C wolkig
So, 27.11. 7:40 1.0° C bedeckt
So, 27.11. 7:30 0.5° C wolkig
So, 27.11. 7:00 0.4° C wolkig
So, 27.11. 6:30 0.7° C wolkig
So, 27.11. 6:00 0.9° C wolkig
So, 27.11. 5:30 0.6° C wolkig
Ortszeit Relative Feuchte Sichtweite
So, 27.11. 7:00 70% >70 km
So, 27.11. 1:00 74% >70 km
Sa, 26.11. 19:00 91% >70 km
Sa, 26.11. 13:00 100% <100 m
Sa, 26.11. 7:00 100% <100 m
Sa, 26.11. 1:00 100% <100 m
Fr, 25.11. 19:00 100% <100 m
Fr, 25.11. 13:00 100% <100 m
Ortszeit Relative Feuchte Sichtweite
So, 27.11. 8:30 52% >70 km
So, 27.11. 8:20 52% -
So, 27.11. 8:10 53% -
So, 27.11. 8:00 56% >70 km
So, 27.11. 7:50 56% -
So, 27.11. 7:40 58% -
So, 27.11. 7:30 67% 65 km
So, 27.11. 7:00 70% >70 km
So, 27.11. 6:30 66% >70 km
So, 27.11. 6:00 61% >70 km
So, 27.11. 5:30 66% >70 km
Ortszeit Niederschlagsmenge Niederschlagsart
So, 27.11. 7:00 0.0 l/m2 in 12 Std. -
So, 27.11. 1:00 0.0 l/m2 in 6 Std. -
Sa, 26.11. 19:00 0.0 l/m2 in 12 Std. -
Sa, 26.11. 13:00 0.0 l/m2 in 6 Std. -
Sa, 26.11. 7:00 2 l/m2 in 12 Std. -
Sa, 26.11. 1:00 2 l/m2 in 6 Std. Schnee, Regen
Fr, 25.11. 19:00 0.4 l/m2 in 12 Std. Schnee, Regen
Fr, 25.11. 13:00 0.1 l/m2 in 6 Std. Schnee, Niederschlag
Ortszeit Niederschlagsmenge Niederschlagsart
So, 27.11. 8:30 0.0 l/m2 in 1 Std. -
So, 27.11. 8:20 keine Meldung -
So, 27.11. 8:10 keine Meldung -
So, 27.11. 8:00 0.0 l/m2 in 1 Std. -
So, 27.11. 7:50 keine Meldung -
So, 27.11. 7:40 keine Meldung -
So, 27.11. 7:30 0.0 l/m2 in 1 Std. -
So, 27.11. 7:00 0.0 l/m2 in 1 Std. -
So, 27.11. 6:30 0.0 l/m2 in 1 Std. -
So, 27.11. 6:00 0.0 l/m2 in 1 Std. -
So, 27.11. 5:30 0.0 l/m2 in 1 Std. -
Ortszeit Stärke Spitze Richtung
km/h Bft. km/h Grad Sektor
So, 27.11. 7:00 40 6 47 210° SW
So, 27.11. 1:00 31 5 33 220° SW
Sa, 26.11. 19:00 20 4 39 270° W
Sa, 26.11. 13:00 25 4 47 270° W
Sa, 26.11. 7:00 39 6 56 290° W
Sa, 26.11. 1:00 32 5 58 300° NW
Fr, 25.11. 19:00 41 6 57 280° W
Fr, 25.11. 13:00 46 6 65 230° SW
Ortszeit Stärke Spitze Richtung
km/h Bft. km/h Grad Sektor
So, 27.11. 8:30 41 6 48 210° SW
So, 27.11. 8:20 41 6 - 210° SW
So, 27.11. 8:10 40 6 - 210° SW
So, 27.11. 8:00 40 6 47 210° SW
So, 27.11. 7:50 40 6 - 210° SW
So, 27.11. 7:40 40 6 - 210° SW
So, 27.11. 7:30 39 6 46 210° SW
So, 27.11. 7:00 40 6 47 210° SW
So, 27.11. 6:30 40 6 47 210° SW
So, 27.11. 6:00 40 6 47 210° SW
So, 27.11. 5:30 40 6 47 210° SW
Ortszeit Untergrenze Bedeckung Gattung
total tief tief mittel hoch
So, 27.11. 7:00 9000 m 8/8 0/8 - - -
So, 27.11. 1:00 2400 m 3/8 2/8 - - -
Sa, 26.11. 19:00 6900 m 8/8 8/8 - - -
Sa, 26.11. 13:00 <30 m 7/8 0/8 - - -
Sa, 26.11. 7:00 <30 m 8/8 0/8 - - -
Sa, 26.11. 1:00 <30 m 8/8 0/8 - - -
Fr, 25.11. 19:00 <30 m 8/8 0/8 - - -
Fr, 25.11. 13:00 <30 m 8/8 0/8 - - -
Ortszeit Bedeckungsgrad in Achtel und Wolkenuntergrenze
So, 27.11. 8:30 4(6900m) 7(7800m) 7(8700m)
So, 27.11. 8:20 4(6900m) 7(7800m) 7(8700m)
So, 27.11. 8:10 8
So, 27.11. 8:00 4(8400m) 6(9000m) 8(10500m)
So, 27.11. 7:50 4(8400m) 6(9000m) 8(10500m)
So, 27.11. 7:40 8
So, 27.11. 7:30 2(9000m) 8(10500m)
So, 27.11. 7:00 3(9000m) 8(10500m)
So, 27.11. 6:30 8(10500m)
So, 27.11. 6:00 8(10500m)
So, 27.11. 5:30 8(9000m)
Ortszeit Stationsdruck (hPa) Tendenz (hPa in 3 Std.)
So, 27.11. 7:00 892 - 0,8
So, 27.11. 1:00 894 - 0,7
Sa, 26.11. 19:00 895 + 0,2
Sa, 26.11. 13:00 894 + 0,8
Sa, 26.11. 7:00 892 + 1,4
Sa, 26.11. 1:00 889 + 1,8
Fr, 25.11. 19:00 885 + 1,8
Fr, 25.11. 13:00 882 - 0,3
Ortszeit Stationsdruck (hPa) Tendenz (hPa in 3 Std.)
So, 27.11. 8:30 891 - 0,9
So, 27.11. 8:20 891 keine Meldung
So, 27.11. 8:10 892 keine Meldung
So, 27.11. 8:00 892 - 0,8
So, 27.11. 7:50 892 keine Meldung
So, 27.11. 7:40 892 keine Meldung
So, 27.11. 7:30 892 - 0,8
So, 27.11. 7:00 892 - 0,8
So, 27.11. 6:30 892 - 0,7
So, 27.11. 6:00 892 - 0,9
So, 27.11. 5:30 892 - 0,9
Ortszeit Schneehöhe (cm)
So, 27.11. 7:00 0
So, 27.11. 1:00 0
Sa, 26.11. 19:00 0
Sa, 26.11. 13:00 0
Sa, 26.11. 7:00 0
Sa, 26.11. 1:00 0
Fr, 25.11. 19:00 0
Fr, 25.11. 13:00 0
Ortszeit Schneehöhe (cm)
So, 27.11. 8:30 0
So, 27.11. 8:20 0
So, 27.11. 8:10 0
So, 27.11. 8:00 0
So, 27.11. 7:50 0
So, 27.11. 7:40 0
So, 27.11. 7:30 0
So, 27.11. 7:00 0
So, 27.11. 6:30 0
So, 27.11. 6:00 0
So, 27.11. 5:30 0
Link zu dieser Seite / Seite empfehlen

Das Wetter in ...